Time;durP1;ratioP1;P1;durP2;ratioP2;P2;SDS_P1;SDS_P2;PMS_P1;PMS_P2;Temp;Humidity;BMP_temperature;BMP_pressure;BME280_temperature;BME280_humidity;BME280_pressure;Samples;Min_cycle;Max_cycle;Signal;HPM_P1;HPM_P2
2022/04/26 03:37:12;;;;;;;24.30;10.10;;;6.10;99.90;;;;;;4907350;29;20048;-91
2022/04/26 03:39:42;;;;;;;21.48;9.98;;;6.20;99.90;;;;;;4876522;29;20056;-91
2022/04/26 03:42:08;;;;;;;23.00;10.88;;;6.10;99.90;;;;;;4891929;29;20048;-92
2022/04/26 03:44:34;;;;;;;24.75;10.02;;;6.10;99.90;;;;;;4892460;29;20051;-92
2022/04/26 03:47:00;;;;;;;22.85;9.45;;;6.10;99.90;;;;;;4878082;29;20043;-93
2022/04/26 03:49:27;;;;;;;22.75;9.90;;;6.10;99.90;;;;;;4892697;29;20043;-92
2022/04/26 03:51:53;;;;;;;19.67;9.23;;;6.10;99.90;;;;;;4908490;29;20058;-92
2022/04/26 03:54:25;;;;;;;21.85;9.88;;;6.10;99.90;;;;;;4908028;29;20056;-93
2022/04/26 03:56:51;;;;;;;19.75;9.20;;;6.10;99.90;;;;;;4907914;29;20052;-92
2022/04/26 03:59:21;;;;;;;21.40;9.35;;;6.10;99.90;;;;;;4891954;29;20044;-91
2022/04/26 04:01:47;;;;;;;19.92;9.82;;;6.10;99.90;;;;;;4891724;29;20123;-91
2022/04/26 04:04:14;;;;;;;21.83;9.05;;;6.00;99.90;;;;;;4892321;29;20087;-93
2022/04/26 04:06:40;;;;;;;22.20;9.63;;;6.00;99.90;;;;;;4891101;29;20060;-93
2022/04/26 04:09:06;;;;;;;26.05;9.48;;;6.00;99.90;;;;;;4876187;29;20107;-94
2022/04/26 04:11:32;;;;;;;26.33;10.23;;;6.10;99.90;;;;;;4876049;29;20127;-92
2022/04/26 04:13:58;;;;;;;20.98;9.93;;;6.00;99.90;;;;;;4876134;29;20047;-92
2022/04/26 04:16:24;;;;;;;24.67;8.93;;;5.80;99.90;;;;;;4891135;29;20041;-92
2022/04/26 04:21:35;;;;;;;24.75;9.77;;;6.00;99.90;;;;;;4905663;29;20051;-91
2022/04/26 04:24:01;;;;;;;17.67;8.82;;;6.00;99.90;;;;;;4889461;29;20052;-94
2022/04/26 04:26:27;;;;;;;20.77;9.10;;;6.00;99.90;;;;;;4873558;29;20048;-92
2022/04/26 04:28:53;;;;;;;17.95;8.65;;;6.00;99.90;;;;;;4873790;29;20071;-91
2022/04/26 04:31:19;;;;;;;17.60;8.57;;;6.00;99.90;;;;;;4874004;29;20048;-93
2022/04/26 04:33:45;;;;;;;20.40;8.80;;;6.10;99.90;;;;;;4873560;29;20044;-91
2022/04/26 04:36:11;;;;;;;19.45;9.23;;;6.00;99.90;;;;;;4873404;29;20036;-92
2022/04/26 04:38:37;;;;;;;22.52;9.10;;;6.00;99.90;;;;;;4873189;29;20059;-91
2022/04/26 04:41:04;;;;;;;19.90;8.50;;;6.00;99.90;;;;;;4874441;29;20052;-94
2022/04/26 04:43:30;;;;;;;18.92;9.02;;;5.90;99.90;;;;;;4889011;29;20107;-91
2022/04/26 04:45:56;;;;;;;19.35;9.23;;;6.00;99.90;;;;;;4873560;29;20044;-91
2022/04/26 04:48:22;;;;;;;20.13;9.00;;;6.10;99.90;;;;;;4873483;29;20154;-91
2022/04/26 04:50:48;;;;;;;22.50;8.52;;;6.00;99.90;;;;;;4873199;29;20083;-93
2022/04/26 04:53:17;;;;;;;19.20;7.97;;;6.00;99.90;;;;;;4872866;29;20454;-91
2022/04/26 04:55:42;;;;;;;17.52;8.15;;;6.00;99.90;;;;;;4873473;29;20040;-93
2022/04/26 04:58:09;;;;;;;15.85;7.95;;;6.10;99.90;;;;;;4873839;29;20107;-91
2022/04/26 05:00:35;;;;;;;21.08;8.18;;;6.10;99.90;;;;;;4872688;29;20044;-91
2022/04/26 05:03:01;;;;;;;17.33;8.20;;;6.10;99.90;;;;;;4872541;29;20051;-93
2022/04/26 05:05:27;;;;;;;18.42;8.52;;;6.20;99.90;;;;;;4872492;29;20056;-92
2022/04/26 05:07:54;;;;;;;22.33;8.13;;;6.20;99.90;;;;;;4872553;29;20051;-93
2022/04/26 05:10:20;;;;;;;17.83;8.05;;;6.30;99.90;;;;;;4872919;29;20059;-92
2022/04/26 05:12:46;;;;;;;19.25;8.90;;;6.30;99.90;;;;;;4872490;29;20044;-93
2022/04/26 05:15:12;;;;;;;20.77;8.35;;;6.40;99.90;;;;;;4872903;29;20127;-92
2022/04/26 05:17:38;;;;;;;21.83;8.57;;;6.40;99.90;;;;;;4872831;29;20044;-91
2022/04/26 05:20:05;;;;;;;15.23;7.80;;;6.40;99.90;;;;;;4872658;29;20130;-91
2022/04/26 05:22:31;;;;;;;17.13;8.70;;;6.50;99.90;;;;;;4872584;29;20077;-91
2022/04/26 05:24:57;;;;;;;20.88;9.25;;;6.50;99.90;;;;;;4872536;29;20109;-91
2022/04/26 05:27:28;;;;;;;21.20;8.13;;;6.50;99.90;;;;;;4872735;29;20428;-92
2022/04/26 05:29:55;;;;;;;18.63;8.98;;;6.60;99.90;;;;;;4872884;29;20090;-94
2022/04/26 05:32:27;;;;;;;16.20;7.45;;;6.70;99.90;;;;;;4887481;29;20052;-92
2022/04/26 05:34:58;;;;;;;19.10;7.77;;;6.70;99.90;;;;;;4887523;29;20044;-92
2022/04/26 05:37:29;;;;;;;17.17;7.53;;;6.80;99.90;;;;;;4872552;29;20429;-93
2022/04/26 05:39:55;;;;;;;17.10;8.07;;;6.80;99.90;;;;;;4872320;29;20052;-91
2022/04/26 05:42:21;;;;;;;13.82;7.22;;;6.80;99.90;;;;;;4872258;29;20044;-91
2022/04/26 05:44:47;;;;;;;16.45;7.07;;;6.90;99.90;;;;;;4872047;29;20056;-91
2022/04/26 05:47:14;;;;;;;15.77;7.25;;;6.90;99.90;;;;;;4872237;29;20090;-94
2022/04/26 05:49:40;;;;;;;21.27;6.97;;;6.90;99.90;;;;;;4868833;29;20052;-93
2022/04/26 05:52:06;;;;;;;12.85;6.47;;;7.00;99.90;;;;;;4883403;29;20052;-92
2022/04/26 05:54:33;;;;;;;12.48;5.78;;;7.00;99.90;;;;;;4883932;29;20080;-91
2022/04/26 05:57:02;;;;;;;23.73;6.68;;;7.00;99.90;;;;;;4884130;29;20055;-92
2022/04/26 05:59:28;;;;;;;15.32;5.53;;;7.10;99.90;;;;;;4868688;29;20140;-91
2022/04/26 06:01:54;;;;;;;21.50;6.22;;;7.00;99.90;;;;;;4868658;29;20128;-92
2022/04/26 06:04:26;;;;;;;11.48;5.35;;;7.10;99.90;;;;;;4884724;29;20147;-90
2022/04/26 06:06:52;;;;;;;16.38;5.85;;;7.20;99.90;;;;;;4883869;29;20069;-92
2022/04/26 06:09:19;;;;;;;16.42;5.60;;;7.20;99.90;;;;;;4883993;29;20506;-95
2022/04/26 06:11:49;;;;;;;17.73;5.45;;;7.30;99.90;;;;;;4884195;29;20044;-93
2022/04/26 06:14:15;;;;;;;17.23;5.65;;;7.40;99.90;;;;;;4883943;29;20040;-93
2022/04/26 06:16:41;;;;;;;18.02;6.30;;;7.40;99.90;;;;;;4883956;29;20041;-91
2022/04/26 06:19:08;;;;;;;13.93;5.45;;;7.50;99.90;;;;;;4869441;29;20508;-91
2022/04/26 06:21:34;;;;;;;20.02;6.10;;;7.60;99.90;;;;;;4884043;29;20092;-93
2022/04/26 06:23:59;;;;;;;12.55;4.97;;;7.70;99.90;;;;;;4868021;29;20057;-94
2022/04/26 06:26:27;;;;;;;13.70;5.53;;;7.70;99.90;;;;;;4868856;29;20045;-91
2022/04/26 06:28:53;;;;;;;20.13;5.28;;;7.80;99.90;;;;;;4868307;29;20434;-91
2022/04/26 06:31:19;;;;;;;12.38;5.05;;;7.90;99.90;;;;;;4868394;29;20475;-91
2022/04/26 06:33:45;;;;;;;17.25;4.82;;;8.10;99.90;;;;;;4868644;29;20041;-93
2022/04/26 06:36:11;;;;;;;11.00;4.43;;;8.00;99.90;;;;;;4868178;29;20044;-91
2022/04/26 06:38:38;;;;;;;9.57;4.88;;;8.10;99.90;;;;;;4883528;29;20048;-92
2022/04/26 06:41:04;;;;;;;13.23;4.95;;;8.10;99.90;;;;;;4883791;29;20526;-92
2022/04/26 06:43:32;;;;;;;11.77;4.32;;;8.20;99.90;;;;;;4867964;29;20049;-92
2022/04/26 06:45:59;;;;;;;9.77;3.78;;;8.20;99.90;;;;;;4883949;29;20045;-94
2022/04/26 06:48:25;;;;;;;14.18;4.75;;;8.20;99.90;;;;;;4883644;29;20053;-91
2022/04/26 06:50:53;;;;;;;12.07;4.72;;;8.20;99.90;;;;;;4883518;29;20086;-91
2022/04/26 06:53:19;;;;;;;12.68;4.22;;;8.30;99.90;;;;;;4868062;29;20060;-93
2022/04/26 06:55:47;;;;;;;11.93;4.38;;;8.40;99.90;;;;;;4867671;29;20049;-93
2022/04/26 06:58:13;;;;;;;12.30;4.20;;;8.50;99.90;;;;;;4867857;29;20103;-91
2022/04/26 07:00:40;;;;;;;8.85;4.18;;;8.50;99.90;;;;;;4868178;29;20104;-93
2022/04/26 07:03:06;;;;;;;16.60;4.45;;;8.50;99.90;;;;;;4867947;29;20060;-92
2022/04/26 07:05:32;;;;;;;9.88;4.13;;;8.50;99.90;;;;;;4882966;29;20057;-91
2022/04/26 07:07:58;;;;;;;12.18;4.43;;;8.60;99.90;;;;;;4883099;29;20135;-93
2022/04/26 07:10:24;;;;;;;12.45;3.90;;;8.60;99.90;;;;;;4883293;29;20080;-94
2022/04/26 07:12:50;;;;;;;12.80;4.05;;;8.60;99.90;;;;;;4883196;29;20057;-94
2022/04/26 07:15:16;;;;;;;13.07;4.20;;;8.70;99.90;;;;;;4868514;29;20049;-91
2022/04/26 07:17:43;;;;;;;14.80;4.60;;;8.80;99.90;;;;;;4884523;29;20055;-91
2022/04/26 07:20:10;;;;;;;10.05;3.90;;;8.90;99.90;;;;;;4884089;29;20084;-92
2022/04/26 07:22:37;;;;;;;11.43;4.25;;;8.90;99.90;;;;;;4884674;29;20053;-94
2022/04/26 07:25:06;;;;;;;10.00;4.30;;;9.00;99.90;;;;;;4868087;29;20051;-92
2022/04/26 07:27:33;;;;;;;18.88;4.82;;;9.10;99.90;;;;;;4884248;29;20470;-93
2022/04/26 07:30:00;;;;;;;12.85;4.13;;;9.10;99.90;;;;;;4883865;29;20048;-93
2022/04/26 07:35:11;;;;;;;11.05;4.80;;;9.10;99.90;;;;;;4869961;29;20087;-92
2022/04/26 07:37:41;;;;;;;14.45;5.28;;;9.20;99.90;;;;;;4883321;29;20075;-92
2022/04/26 07:40:09;;;;;;;6.72;4.05;;;9.40;99.90;;;;;;4882881;29;20048;-92
2022/04/26 07:42:36;;;;;;;10.65;4.53;;;9.50;99.90;;;;;;4867602;29;20439;-92
2022/04/26 07:45:02;;;;;;;11.77;4.68;;;9.60;99.90;;;;;;4883029;29;20099;-93
2022/04/26 07:47:30;;;;;;;7.97;3.63;;;9.60;99.90;;;;;;4898415;29;20084;-92
2022/04/26 07:50:00;;;;;;;11.57;4.20;;;9.60;99.90;;;;;;4882671;29;20151;-92
2022/04/26 07:52:28;;;;;;;9.73;3.78;;;9.90;99.90;;;;;;4883435;29;20055;-94
2022/04/26 07:54:54;;;;;;;11.95;3.95;;;10.20;99.90;;;;;;4883188;29;20108;-93
2022/04/26 07:57:20;;;;;;;8.80;3.80;;;10.20;99.90;;;;;;4882794;29;20048;-92
2022/04/26 07:59:46;;;;;;;9.32;3.90;;;10.40;99.90;;;;;;4867166;29;20044;-92
2022/04/26 08:02:12;;;;;;;11.63;3.72;;;10.40;99.90;;;;;;4897966;29;20108;-92
2022/04/26 08:04:38;;;;;;;8.20;3.67;;;10.50;99.90;;;;;;4882827;29;20554;-93
2022/04/26 08:07:06;;;;;;;9.93;3.58;;;10.40;99.90;;;;;;4882382;29;20068;-92
2022/04/26 08:09:35;;;;;;;8.00;3.70;;;10.40;99.90;;;;;;4867241;29;20093;-92
2022/04/26 08:12:02;;;;;;;9.23;3.50;;;10.30;99.90;;;;;;4882679;29;20048;-92
2022/04/26 08:14:29;;;;;;;12.52;3.83;;;10.30;99.90;;;;;;4883157;29;20096;-92
2022/04/26 08:16:55;;;;;;;14.35;4.30;;;10.60;99.90;;;;;;4870385;29;20048;-95
2022/04/26 08:19:21;;;;;;;12.48;4.03;;;10.70;99.90;;;;;;4886725;29;20048;-92
2022/04/26 08:21:47;;;;;;;7.32;3.47;;;10.80;99.90;;;;;;4870771;29;20052;-93
2022/04/26 08:29:43;;;;;;;11.32;3.75;;;11.10;99.90;;;;;;4873369;29;20052;-93
2022/04/26 08:32:10;;;;;;;12.68;3.30;;;11.10;99.90;;;;;;4871421;29;20059;-92
2022/04/26 08:34:36;;;;;;;8.95;3.78;;;11.20;99.90;;;;;;4885702;29;20041;-93
2022/04/26 08:37:03;;;;;;;7.82;3.38;;;11.30;99.90;;;;;;4885746;29;20487;-92
2022/04/26 08:39:29;;;;;;;7.18;3.45;;;11.30;99.90;;;;;;4886062;29;20056;-94
2022/04/26 08:42:00;;;;;;;9.77;3.38;;;11.10;99.90;;;;;;4870125;29;20052;-94
2022/04/26 08:44:27;;;;;;;7.35;3.28;;;11.00;99.90;;;;;;4885873;29;20052;-91
2022/04/26 08:52:28;;;;;;;10.95;3.22;;;10.90;99.90;;;;;;4873428;29;20079;-93
2022/04/26 08:54:54;;;;;;;7.68;2.97;;;10.80;99.90;;;;;;4885497;29;20048;-92
2022/04/26 08:57:20;;;;;;;11.38;3.65;;;10.80;99.90;;;;;;4869878;29;20044;-92
2022/04/26 08:59:51;;;;;;;8.23;3.08;;;10.80;99.90;;;;;;4870229;29;20079;-94
2022/04/26 09:02:19;;;;;;;6.10;3.20;;;10.70;99.90;;;;;;4869873;29;20085;-93
2022/04/26 09:04:46;;;;;;;8.85;3.30;;;10.60;99.90;;;;;;4884876;29;20149;-92
2022/04/26 09:07:33;;;;;;;11.18;3.30;;;10.60;99.90;;;;;;4884928;29;20063;-90
2022/04/26 09:10:10;;;;;;;8.20;3.22;;;10.60;99.90;;;;;;4885372;29;20055;-93
2022/04/26 09:13:04;;;;;;;7.95;3.10;;;10.60;99.90;;;;;;4885024;29;20048;-92
2022/04/26 09:15:41;;;;;;;21.75;4.05;;;10.60;99.90;;;;;;4901014;29;20040;-92
2022/04/26 09:18:27;;;;;;;8.20;3.03;;;10.80;99.90;;;;;;4855470;29;20463;-93
2022/04/26 09:21:05;;;;;;;9.88;3.08;;;11.00;99.90;;;;;;4885221;29;20115;-93
2022/04/26 09:23:34;;;;;;;9.00;3.10;;;11.00;99.90;;;;;;4900838;29;20054;-92
2022/04/26 09:26:13;;;;;;;8.20;3.30;;;11.20;99.90;;;;;;4884362;29;20053;-93
2022/04/26 09:28:46;;;;;;;7.07;3.47;;;11.50;99.90;;;;;;4885971;29;20044;-93
2022/04/26 09:31:30;;;;;;;6.63;3.20;;;11.80;99.70;;;;;;4885016;29;20043;-94
2022/04/26 09:33:59;;;;;;;10.15;3.35;;;12.10;98.90;;;;;;4884668;29;20055;-93
2022/04/26 09:36:28;;;;;;;8.45;2.75;;;12.40;98.20;;;;;;4869537;29;20056;-91
2022/04/26 09:38:59;;;;;;;8.68;3.00;;;12.40;97.70;;;;;;4884293;29;20040;-91
2022/04/26 09:41:27;;;;;;;7.55;3.05;;;12.50;95.90;;;;;;4884564;29;20049;-95
2022/04/26 09:44:06;;;;;;;7.28;2.90;;;12.40;95.80;;;;;;4868765;29;20084;-94
2022/04/26 09:46:54;;;;;;;8.00;3.38;;;12.30;96.60;;;;;;4885093;29;20044;-93
2022/04/26 09:49:22;;;;;;;6.38;3.20;;;12.50;96.80;;;;;;4899925;29;20041;-93
2022/04/26 09:51:59;;;;;;;11.95;3.05;;;12.60;94.70;;;;;;4884245;29;20051;-94
2022/04/26 09:54:26;;;;;;;11.20;2.78;;;12.70;95.10;;;;;;4884045;29;20055;-93
2022/04/26 09:56:53;;;;;;;4.78;2.38;;;13.00;94.00;;;;;;4868749;29;20083;-95
2022/04/26 09:59:29;;;;;;;5.93;2.88;;;13.20;93.30;;;;;;4884279;29;20128;-94
2022/04/26 10:01:57;;;;;;;7.90;3.17;;;13.20;93.00;;;;;;4884025;29;20048;-93
2022/04/26 10:04:29;;;;;;;4.55;2.63;;;13.30;93.00;;;;;;4868880;29;20075;-94
2022/04/26 10:07:05;;;;;;;6.17;3.00;;;13.20;92.50;;;;;;4899397;29;20068;-91
2022/04/26 10:09:35;;;;;;;8.13;2.90;;;13.00;92.20;;;;;;4884294;29;20371;-94
2022/04/26 10:12:02;;;;;;;5.65;3.10;;;12.90;92.90;;;;;;4868585;29;20044;-94
2022/04/26 10:14:30;;;;;;;9.30;3.53;;;12.90;93.00;;;;;;4883991;29;20056;-93
2022/04/26 10:16:57;;;;;;;5.18;2.80;;;12.90;92.80;;;;;;4883844;29;20060;-92
2022/04/26 10:19:43;;;;;;;7.22;3.00;;;12.80;92.20;;;;;;4852896;29;20082;-93
2022/04/26 10:22:10;;;;;;;6.78;2.70;;;12.90;92.20;;;;;;4885098;29;20048;-95
2022/04/26 10:24:38;;;;;;;6.47;2.58;;;13.10;92.70;;;;;;4868073;29;20132;-93
2022/04/26 10:27:25;;;;;;;9.77;3.15;;;13.30;91.90;;;;;;4868327;29;20052;-94
2022/04/26 10:29:52;;;;;;;11.32;3.03;;;13.30;91.70;;;;;;4884699;29;20472;-93
2022/04/26 10:32:29;;;;;;;8.95;3.22;;;13.10;91.60;;;;;;4883751;29;20048;-94
2022/04/26 10:34:55;;;;;;;8.05;3.42;;;13.00;92.30;;;;;;4852831;29;20080;-93
2022/04/26 10:37:21;;;;;;;4.35;2.95;;;13.10;92.60;;;;;;4868164;29;20095;-92
2022/04/26 10:40:00;;;;;;;8.70;3.35;;;13.40;92.70;;;;;;4883862;29;20044;-94
2022/04/26 10:42:29;;;;;;;10.35;3.30;;;13.80;92.40;;;;;;4899382;29;20565;-93
2022/04/26 10:45:06;;;;;;;7.95;3.05;;;14.10;91.90;;;;;;4868294;29;20048;-93
2022/04/26 10:47:33;;;;;;;8.27;3.00;;;14.20;90.50;;;;;;4883548;29;20044;-94
2022/04/26 10:50:02;;;;;;;5.38;2.83;;;14.10;86.90;;;;;;4883554;29;20048;-93
2022/04/26 10:52:36;;;;;;;5.32;2.60;;;14.10;88.50;;;;;;4883231;29;20084;-92
2022/04/26 10:55:05;;;;;;;7.32;3.00;;;14.40;86.70;;;;;;4868212;29;20036;-93
2022/04/26 10:57:39;;;;;;;8.93;3.30;;;14.70;84.20;;;;;;4883528;29;20049;-92
2022/04/26 11:00:13;;;;;;;5.72;2.85;;;14.50;80.80;;;;;;4867518;29;20041;-93
2022/04/26 11:02:42;;;;;;;5.38;3.28;;;14.30;81.10;;;;;;4867624;29;20045;-92
2022/04/26 11:05:13;;;;;;;9.10;2.97;;;14.30;81.70;;;;;;4885524;29;20048;-91
2022/04/26 11:07:47;;;;;;;4.68;2.90;;;14.40;81.80;;;;;;4889182;29;20086;-92
2022/04/26 11:10:15;;;;;;;4.32;2.40;;;14.60;80.60;;;;;;4874436;29;20055;-92
2022/04/26 11:12:43;;;;;;;5.45;2.40;;;14.80;78.60;;;;;;4889381;29;20414;-94
2022/04/26 11:15:23;;;;;;;8.02;2.55;;;15.10;77.30;;;;;;4889569;29;20383;-93
2022/04/26 11:17:51;;;;;;;4.20;2.53;;;15.20;76.00;;;;;;4889221;29;20043;-92
2022/04/26 11:20:20;;;;;;;6.88;2.92;;;14.90;75.90;;;;;;4873837;29;20047;-91
2022/04/26 11:22:47;;;;;;;5.88;2.95;;;14.80;77.10;;;;;;4904685;29;20047;-91
2022/04/26 11:28:09;;;;;;;8.18;2.95;;;15.00;76.20;;;;;;4892858;29;20414;-92
2022/04/26 11:30:36;;;;;;;8.95;2.80;;;15.20;76.50;;;;;;4890494;29;20482;-93
2022/04/26 11:33:23;;;;;;;8.90;2.47;;;15.30;74.80;;;;;;4904560;29;20043;-94
2022/04/26 11:36:01;;;;;;;4.75;2.50;;;15.10;72.70;;;;;;4889429;29;20082;-93
2022/04/26 11:38:28;;;;;;;6.40;2.42;;;14.80;72.10;;;;;;4904298;29;20047;-93
2022/04/26 11:40:58;;;;;;;6.18;2.70;;;14.80;72.70;;;;;;4873654;29;20079;-91
2022/04/26 11:43:26;;;;;;;5.45;3.00;;;15.10;74.30;;;;;;4904518;29;20051;-93
2022/04/26 11:45:54;;;;;;;7.28;2.50;;;15.20;73.00;;;;;;4889392;29;20052;-94
2022/04/26 11:48:25;;;;;;;6.15;2.80;;;15.10;71.90;;;;;;4888688;29;20083;-94
2022/04/26 11:50:54;;;;;;;7.32;2.85;;;15.00;71.90;;;;;;4876493;29;20521;-92
2022/04/26 11:53:21;;;;;;;7.43;2.75;;;15.00;73.30;;;;;;4892688;29;20516;-92
2022/04/26 11:56:02;;;;;;;5.85;2.40;;;15.30;72.70;;;;;;4893310;29;20039;-93
2022/04/26 11:58:28;;;;;;;6.82;2.60;;;15.20;71.00;;;;;;4908019;29;20044;-93
2022/04/26 12:01:10;;;;;;;5.70;2.33;;;15.00;71.90;;;;;;4892802;29;20047;-94
2022/04/26 12:03:52;;;;;;;9.07;2.65;;;15.20;71.50;;;;;;4908283;29;20107;-91
2022/04/26 12:06:35;;;;;;;5.57;2.72;;;15.50;70.70;;;;;;4894577;29;20099;-93
2022/04/26 12:09:03;;;;;;;6.80;2.80;;;15.80;69.10;;;;;;4895484;29;20082;-91
2022/04/26 12:11:32;;;;;;;7.57;2.60;;;16.00;68.80;;;;;;4895216;29;20434;-94
2022/04/26 12:14:06;;;;;;;6.63;2.67;;;16.10;68.60;;;;;;4895552;29;20135;-91
2022/04/26 12:16:36;;;;;;;9.93;2.85;;;16.00;67.60;;;;;;4881646;29;20062;-92
2022/04/26 12:19:04;;;;;;;6.78;2.42;;;15.90;67.80;;;;;;4914617;29;20047;-93
2022/04/26 12:21:47;;;;;;;8.32;2.50;;;15.70;67.90;;;;;;4884967;29;20105;-93
2022/04/26 12:24:15;;;;;;;6.93;2.53;;;15.80;68.60;;;;;;4897700;29;20071;-93
2022/04/26 12:26:55;;;;;;;7.72;2.83;;;16.00;68.30;;;;;;4898119;29;20050;-93
2022/04/26 12:29:30;;;;;;;6.80;2.80;;;16.30;65.00;;;;;;4897013;29;20074;-93
2022/04/26 12:31:58;;;;;;;6.50;2.50;;;16.50;65.90;;;;;;4896726;29;20187;-92
2022/04/26 12:34:29;;;;;;;5.10;2.45;;;16.70;64.90;;;;;;4896400;29;20050;-93
2022/04/26 12:36:59;;;;;;;4.90;2.38;;;16.70;64.80;;;;;;4881899;29;20161;-91
2022/04/26 12:39:38;;;;;;;3.97;2.40;;;16.90;65.60;;;;;;4897302;29;20049;-94
2022/04/26 12:42:05;;;;;;;6.50;2.50;;;17.20;65.60;;;;;;4896585;29;20052;-94
2022/04/26 12:44:31;;;;;;;6.65;2.45;;;17.50;64.50;;;;;;4895512;29;20060;-92
2022/04/26 12:50:31;;;;;;;9.05;2.90;;;17.10;63.00;;;;;;4885442;29;20090;-92
2022/04/26 12:53:02;;;;;;;4.22;2.55;;;16.50;62.80;;;;;;4909687;29;20060;-92
2022/04/26 12:55:38;;;;;;;5.57;2.63;;;16.50;63.40;;;;;;4894896;29;20237;-92
2022/04/26 12:58:05;;;;;;;4.82;2.60;;;16.70;63.20;;;;;;4893775;29;20054;-94
2022/04/26 13:00:32;;;;;;;4.43;2.80;;;16.60;63.20;;;;;;4891869;29;20064;-92
2022/04/26 13:03:03;;;;;;;4.85;2.63;;;16.30;62.70;;;;;;4876289;29;20130;-93
2022/04/26 13:06:12;;;;;;;5.50;2.50;;;16.00;63.30;;;;;;4907326;29;20130;-92
2022/04/26 13:08:41;;;;;;;5.85;2.67;;;16.10;65.10;;;;;;4896998;29;20062;-94
2022/04/26 13:11:08;;;;;;;6.68;2.85;;;16.40;63.90;;;;;;4875867;29;20044;-92
2022/04/26 13:13:39;;;;;;;9.77;2.90;;;16.60;63.90;;;;;;4891153;29;20047;-94
2022/04/26 13:16:05;;;;;;;6.75;2.42;;;16.70;63.70;;;;;;4906717;29;20036;-91
2022/04/26 13:18:32;;;;;;;4.57;2.22;;;16.70;64.20;;;;;;4890882;29;20047;-92
2022/04/26 13:20:59;;;;;;;6.65;2.70;;;16.70;63.60;;;;;;4875739;29;20043;-93
2022/04/26 13:23:26;;;;;;;6.63;2.83;;;16.50;62.90;;;;;;4890989;29;20058;-93
2022/04/26 13:25:52;;;;;;;4.97;2.78;;;16.80;63.90;;;;;;4876002;29;20404;-93
2022/04/26 13:28:19;;;;;;;4.03;2.75;;;17.00;63.40;;;;;;4875575;29;20126;-94
2022/04/26 13:30:45;;;;;;;8.25;3.50;;;16.90;63.20;;;;;;4906433;29;20083;-94
2022/04/26 13:33:12;;;;;;;9.85;3.92;;;16.70;62.40;;;;;;4875430;29;20044;-93
2022/04/26 13:35:38;;;;;;;7.18;3.17;;;16.50;62.90;;;;;;4890754;29;20498;-91
2022/04/26 13:38:09;;;;;;;6.88;3.20;;;16.20;62.80;;;;;;4875337;29;20094;-93
2022/04/26 13:40:37;;;;;;;4.68;2.88;;;16.40;63.90;;;;;;4890621;29;20043;-93
2022/04/26 13:43:04;;;;;;;9.40;3.00;;;16.60;64.00;;;;;;4875701;29;20052;-91
2022/04/26 13:45:32;;;;;;;4.35;2.90;;;16.90;63.60;;;;;;4875945;29;20495;-91
2022/04/26 13:48:08;;;;;;;5.38;2.90;;;16.90;62.40;;;;;;4875637;29;20442;-91
2022/04/26 13:50:34;;;;;;;6.78;2.92;;;16.60;62.30;;;;;;4906266;29;20047;-93
2022/04/26 13:53:01;;;;;;;7.00;2.90;;;16.40;62.90;;;;;;4891192;29;20048;-92
2022/04/26 13:55:27;;;;;;;5.35;3.05;;;16.20;62.80;;;;;;4905877;29;20099;-93
2022/04/26 13:57:54;;;;;;;6.20;3.17;;;15.90;63.50;;;;;;4874914;29;20075;-93
2022/04/26 14:00:21;;;;;;;7.18;2.92;;;15.70;63.70;;;;;;4874825;29;20036;-93
2022/04/26 14:02:48;;;;;;;10.25;3.05;;;15.50;64.20;;;;;;4875249;29;20550;-92
2022/04/26 14:05:18;;;;;;;8.77;2.92;;;15.40;64.30;;;;;;4874768;29;20052;-92
2022/04/26 14:07:46;;;;;;;6.40;2.63;;;15.20;64.60;;;;;;4891718;29;20079;-93
2022/04/26 14:10:14;;;;;;;6.18;3.03;;;14.90;64.70;;;;;;4874812;29;20170;-92
2022/04/26 14:12:40;;;;;;;7.45;2.72;;;14.70;65.20;;;;;;4874093;29;20111;-92
2022/04/26 14:23:21;;;;;;;4.15;2.70;;;15.00;66.40;;;;;;4892455;29;20059;-92
2022/04/26 14:25:46;;;;;;;5.13;2.90;;;15.10;65.50;;;;;;4874487;29;20130;-91
2022/04/26 14:28:12;;;;;;;9.20;3.00;;;15.20;65.50;;;;;;4874492;29;20043;-93
2022/04/26 14:30:38;;;;;;;5.05;3.20;;;15.50;65.60;;;;;;4874528;29;20114;-93
2022/04/26 14:33:04;;;;;;;6.28;3.03;;;15.80;64.80;;;;;;4889681;29;20044;-94
2022/04/26 14:35:32;;;;;;;9.73;3.13;;;16.20;65.40;;;;;;4874290;29;20126;-92
2022/04/26 14:37:59;;;;;;;7.25;2.70;;;16.40;64.40;;;;;;4874524;29;20054;-95
2022/04/26 14:40:25;;;;;;;4.30;2.47;;;16.60;63.90;;;;;;4889680;29;20043;-92
2022/04/26 14:42:51;;;;;;;6.80;2.90;;;16.80;63.50;;;;;;4905469;29;20550;-94
2022/04/26 14:45:17;;;;;;;6.03;2.47;;;17.00;63.50;;;;;;4874215;29;20043;-94
2022/04/26 14:47:43;;;;;;;8.88;3.15;;;17.00;63.30;;;;;;4858626;29;20079;-93
2022/04/26 14:50:09;;;;;;;5.32;2.83;;;16.80;62.30;;;;;;4858740;29;20055;-94
2022/04/26 14:52:37;;;;;;;9.32;3.00;;;16.80;63.40;;;;;;4889358;29;20055;-93
2022/04/26 14:55:10;;;;;;;7.90;2.80;;;16.90;62.60;;;;;;4874094;29;20406;-92
2022/04/26 14:57:36;;;;;;;6.90;4.50;;;17.00;62.90;;;;;;4889430;29;20102;-94
2022/04/26 15:00:07;;;;;;;9.13;3.20;;;17.40;62.80;;;;;;4874152;29;20482;-91
2022/04/26 15:02:39;;;;;;;4.80;3.05;;;17.60;61.30;;;;;;4905295;29;20048;-92
2022/04/26 15:05:10;;;;;;;6.38;3.00;;;17.60;61.30;;;;;;4874397;29;20043;-93
2022/04/26 15:10:22;;;;;;;7.47;3.00;;;17.60;61.40;;;;;;4905007;29;20044;-93
2022/04/26 15:18:17;;;;;;;6.55;2.97;;;16.70;60.50;;;;;;4905323;29;20047;-94
2022/04/26 15:20:48;;;;;;;6.93;2.75;;;16.30;62.00;;;;;;4890011;29;20059;-91
2022/04/26 15:23:15;;;;;;;10.65;3.30;;;16.00;61.90;;;;;;4889995;29;20081;-92
2022/04/26 15:25:41;;;;;;;8.52;2.90;;;16.10;62.90;;;;;;4861340;29;20161;-93
2022/04/26 15:28:09;;;;;;;10.57;3.20;;;16.10;62.20;;;;;;4878393;29;20491;-94
2022/04/26 15:30:45;;;;;;;7.22;3.38;;;16.00;62.10;;;;;;4878960;29;20109;-92
2022/04/26 15:33:11;;;;;;;5.35;2.30;;;15.80;61.90;;;;;;4878439;29;20525;-94
2022/04/26 15:35:38;;;;;;;10.63;3.15;;;15.80;62.30;;;;;;4877478;29;20126;-94
2022/04/26 15:38:07;;;;;;;8.07;2.80;;;15.60;61.70;;;;;;4864342;29;20115;-92
2022/04/26 15:40:34;;;;;;;6.82;2.88;;;15.40;60.70;;;;;;4894238;29;20111;-91
2022/04/26 15:43:00;;;;;;;6.18;2.20;;;15.10;61.40;;;;;;4893605;29;20087;-93
2022/04/26 15:45:26;;;;;;;7.43;2.63;;;15.00;62.80;;;;;;4877952;29;20150;-92
2022/04/26 15:47:52;;;;;;;5.70;2.50;;;14.90;62.90;;;;;;4878279;29;20553;-91
2022/04/26 15:50:18;;;;;;;10.50;2.92;;;14.80;63.20;;;;;;4877739;29;20051;-91
2022/04/26 15:52:44;;;;;;;6.85;2.42;;;14.70;63.30;;;;;;4877756;29;20054;-92
2022/04/26 15:55:10;;;;;;;8.48;3.13;;;14.60;63.40;;;;;;4862215;29;20040;-91
2022/04/26 15:57:37;;;;;;;4.68;2.60;;;14.50;63.70;;;;;;4878034;29;20043;-91
2022/04/26 16:00:04;;;;;;;4.43;2.60;;;14.50;64.40;;;;;;4893890;29;20486;-91
2022/04/26 16:02:31;;;;;;;49.00;31.90;;;14.40;64.70;;;;;;4878018;29;20406;-94
2022/04/26 16:04:57;;;;;;;9.00;3.92;;;14.40;65.10;;;;;;4862903;29;20051;-94
2022/04/26 16:07:23;;;;;;;9.10;3.40;;;14.20;65.00;;;;;;4860045;29;20060;-93
2022/04/26 16:21:08;;;;;;;9.02;3.10;;;13.60;66.20;;;;;;4883873;29;20044;-91
2022/04/26 16:23:37;;;;;;;6.97;2.83;;;13.50;66.60;;;;;;4870516;29;20068;-93
2022/04/26 16:26:27;;;;;;;5.80;3.10;;;13.50;66.40;;;;;;4874251;29;20052;-92
2022/04/26 16:28:54;;;;;;;7.93;2.60;;;13.40;66.50;;;;;;4855114;29;20048;-92
2022/04/26 16:31:27;;;;;;;11.38;3.45;;;13.30;66.30;;;;;;4886050;29;20056;-93
2022/04/26 16:33:58;;;;;;;6.25;2.95;;;13.30;66.10;;;;;;4886129;29;20044;-91
2022/04/26 16:36:28;;;;;;;7.57;2.85;;;13.30;66.30;;;;;;4885084;29;20040;-94
2022/04/26 16:38:55;;;;;;;6.13;2.80;;;13.30;65.90;;;;;;4870564;29;20049;-92
2022/04/26 16:41:21;;;;;;;7.88;2.63;;;13.20;66.10;;;;;;4870377;29;20045;-92
2022/04/26 16:43:49;;;;;;;4.43;2.53;;;13.10;66.70;;;;;;4885384;29;20049;-93
2022/04/26 16:46:17;;;;;;;7.82;3.10;;;13.00;66.30;;;;;;4869896;29;20131;-92
2022/04/26 16:48:45;;;;;;;7.25;3.05;;;12.90;67.00;;;;;;4869955;29;20091;-93
2022/04/26 16:51:14;;;;;;;13.88;6.88;;;12.80;67.60;;;;;;4870669;29;20056;-91
2022/04/26 16:53:40;;;;;;;7.93;3.47;;;12.70;68.20;;;;;;4884971;29;20172;-92
2022/04/26 16:56:06;;;;;;;12.07;3.03;;;12.60;68.70;;;;;;4854586;29;20048;-91
2022/04/26 16:58:32;;;;;;;5.03;3.10;;;12.50;69.00;;;;;;4854612;29;20131;-94
2022/04/26 17:00:58;;;;;;;8.50;2.90;;;12.40;69.30;;;;;;4854878;29;20127;-92
2022/04/26 17:03:24;;;;;;;4.85;2.90;;;12.30;69.50;;;;;;4870087;29;20055;-92
2022/04/26 17:05:50;;;;;;;8.35;3.00;;;12.20;69.90;;;;;;4891000;29;20067;-91
2022/04/26 17:08:19;;;;;;;8.45;3.00;;;12.10;71.10;;;;;;4892071;29;20122;-92
2022/04/26 17:10:47;;;;;;;7.40;2.90;;;12.10;71.10;;;;;;4891271;29;20102;-91
2022/04/26 17:13:14;;;;;;;6.25;3.05;;;12.10;71.70;;;;;;4875932;29;20047;-93
2022/04/26 17:15:41;;;;;;;7.72;3.47;;;12.10;72.40;;;;;;4906154;29;20055;-92
2022/04/26 17:18:07;;;;;;;10.32;3.72;;;12.10;72.90;;;;;;4891714;29;20048;-94
2022/04/26 17:20:34;;;;;;;9.05;3.17;;;12.00;73.30;;;;;;4875433;29;20039;-93